Time;durP1;ratioP1;P1;durP2;ratioP2;P2;SDS_P1;SDS_P2;PMS_P1;PMS_P2;Temp;Humidity;BMP_temperature;BMP_pressure;BME280_temperature;BME280_humidity;BME280_pressure;Samples;Min_cycle;Max_cycle;Signal;HPM_P1;HPM_P2
2022/08/30 00:01:05;;;;;;;;;;;;;;;16.41;56.67;100653.28;5075580;28;1056;-55
2022/08/30 00:03:41;;;;;;;;;;;;;;;16.43;56.53;100661.25;5057879;28;1060;-56
2022/08/30 00:06:07;;;;;;;;;;;;;;;16.41;56.58;100664.25;5070661;28;994;-56
2022/08/30 00:08:33;;;;;;;;;;;;;;;16.32;56.46;100665.09;5075681;28;1152;-55
2022/08/30 00:10:58;;;;;;;;;;;;;;;16.30;56.70;100659.88;5046437;28;1145;-55
2022/08/30 00:13:24;;;;;;;;;;;;;;;16.33;56.18;100653.84;5073797;28;1906;-55
2022/08/30 00:15:49;;;;;;;;;;;;;;;16.33;56.02;100651.09;5075531;28;1016;-56
2022/08/30 00:18:16;;;;;;;;;;;;;;;16.30;56.05;100646.16;5073881;28;1001;-55
2022/08/30 00:20:42;;;;;;;;;;;;;;;16.30;56.01;100659.88;5075473;28;1017;-56
2022/08/30 00:23:07;;;;;;;;;;;;;;;16.26;56.37;100658.78;5057571;28;1067;-55
2022/08/30 00:25:33;;;;;;;;;;;;;;;16.23;56.31;100653.84;5075528;28;1195;-55
2022/08/30 00:27:58;;;;;;;;;;;;;;;16.19;56.36;100655.50;5075503;28;1347;-56
2022/08/30 00:30:24;;;;;;;;;;;;;;;16.15;56.44;100654.38;5072973;28;1100;-55
2022/08/30 00:32:49;;;;;;;;;;;;;;;16.19;56.24;100647.25;5074970;28;1964;-56
2022/08/30 00:35:15;;;;;;;;;;;;;;;16.17;56.07;100646.69;5075853;28;1151;-55
2022/08/30 00:37:40;;;;;;;;;;;;;;;16.14;56.03;100644.50;5075225;28;1382;-55
2022/08/30 00:40:07;;;;;;;;;;;;;;;16.16;56.02;100639.53;5073991;28;973;-55
2022/08/30 00:42:32;;;;;;;;;;;;;;;16.15;56.00;100643.41;5075078;28;1084;-55
2022/08/30 00:44:58;;;;;;;;;;;;;;;16.12;56.08;100652.16;5062975;28;1017;-55
2022/08/30 00:47:23;;;;;;;;;;;;;;;16.14;56.18;100653.53;5057370;28;1033;-55
2022/08/30 00:49:49;;;;;;;;;;;;;;;16.10;56.13;100646.94;5075533;28;981;-53
2022/08/30 00:52:15;;;;;;;;;;;;;;;16.06;56.03;100649.44;5074553;28;1963;-55
2022/08/30 00:54:41;;;;;;;;;;;;;;;16.04;56.17;100654.34;5073223;28;1228;-55
2022/08/30 00:57:06;;;;;;;;;;;;;;;16.05;56.25;100650.53;5059829;28;993;-55
2022/08/30 00:59:31;;;;;;;;;;;;;;;16.81;56.40;100658.97;5079177;28;1020;-55
2022/08/30 01:01:57;;;;;;;;;;;;;;;17.24;56.85;100653.94;5060844;28;998;-55
2022/08/30 01:04:23;;;;;;;;;;;;;;;16.71;57.48;100659.81;5078579;28;1052;-55
2022/08/30 01:06:48;;;;;;;;;;;;;;;16.54;57.59;100656.56;5061287;28;1155;-55
2022/08/30 01:09:14;;;;;;;;;;;;;;;16.51;57.22;100654.34;5078630;28;1119;-55
2022/08/30 01:11:40;;;;;;;;;;;;;;;16.42;56.89;100654.94;5078654;28;1163;-55
2022/08/30 01:14:06;;;;;;;;;;;;;;;16.39;56.82;100652.72;5070098;28;1976;-55
2022/08/30 01:16:31;;;;;;;;;;;;;;;16.33;56.59;100653.03;5055447;28;1081;-56
2022/08/30 01:18:57;;;;;;;;;;;;;;;16.25;56.67;100663.41;5061059;28;1060;-55
2022/08/30 01:21:41;;;;;;;;;;;;;;;16.25;56.51;100662.59;5078305;28;1068;-55
2022/08/30 01:24:06;;;;;;;;;;;;;;;16.21;56.26;100650.53;5066529;28;986;-55
2022/08/30 01:26:31;;;;;;;;;;;;;;;16.18;56.37;100659.31;5078750;28;1071;-55
2022/08/30 01:29:02;;;;;;;;;;;;;;;16.18;56.35;100657.38;5078658;28;1190;-55
2022/08/30 01:31:27;;;;;;;;;;;;;;;16.15;56.20;100651.63;5060168;28;1084;-55
2022/08/30 01:33:53;;;;;;;;;;;;;;;16.18;56.18;100659.31;5078364;28;1914;-55
2022/08/30 01:36:18;;;;;;;;;;;;;;;16.14;56.05;100655.47;5078730;28;1067;-56
2022/08/30 01:38:51;;;;;;;;;;;;;;;16.10;56.10;100651.63;5078398;28;1107;-55
2022/08/30 01:41:17;;;;;;;;;;;;;;;16.08;56.16;100660.13;5075539;28;957;-55
2022/08/30 01:43:42;;;;;;;;;;;;;;;16.07;56.00;100666.72;5064935;28;977;-55
2022/08/30 01:46:09;;;;;;;;;;;;;;;16.06;55.95;100663.16;5075440;28;1238;-55
2022/08/30 01:48:35;;;;;;;;;;;;;;;16.04;55.96;100651.63;5078422;28;1115;-55
2022/08/30 01:51:01;;;;;;;;;;;;;;;16.03;55.80;100660.97;5078236;28;1159;-55
2022/08/30 01:53:26;;;;;;;;;;;;;;;16.00;56.07;100653.25;5076641;28;1984;-55
2022/08/30 01:55:52;;;;;;;;;;;;;;;16.03;55.83;100658.22;5077986;28;1072;-55
2022/08/30 01:58:17;;;;;;;;;;;;;;;16.55;56.49;100663.69;5078232;28;1187;-55
2022/08/30 02:00:43;;;;;;;;;;;;;;;17.25;56.43;100661.09;5077865;28;1012;-56
2022/08/30 02:03:08;;;;;;;;;;;;;;;16.64;57.62;100661.22;5078433;28;1210;-56
2022/08/30 02:05:33;;;;;;;;;;;;;;;16.53;57.41;100660.41;5071729;28;833;-56
2022/08/30 02:07:59;;;;;;;;;;;;;;;16.43;56.79;100656.56;5071871;28;1045;-56
2022/08/30 02:10:24;;;;;;;;;;;;;;;16.37;56.95;100659.59;5077425;28;1005;-56
2022/08/30 02:12:50;;;;;;;;;;;;;;;16.28;56.71;100656.56;5077454;28;1906;-56
2022/08/30 02:15:16;;;;;;;;;;;;;;;16.29;56.54;100655.47;5078174;28;1143;-56
2022/08/30 02:17:41;;;;;;;;;;;;;;;16.28;56.18;100662.06;5073088;28;1013;-56
2022/08/30 02:20:07;;;;;;;;;;;;;;;16.21;56.18;100658.75;5074884;28;1068;-56
2022/08/30 02:22:32;;;;;;;;;;;;;;;16.15;56.59;100654.38;5077563;28;1076;-56
2022/08/30 02:24:57;;;;;;;;;;;;;;;16.14;56.10;100653.53;5077574;28;1112;-56
2022/08/30 02:27:24;;;;;;;;;;;;;;;16.15;56.36;100657.13;5077640;28;1076;-56
2022/08/30 02:29:50;;;;;;;;;;;;;;;16.11;56.04;100658.78;5068346;28;1052;-55
2022/08/30 02:32:15;;;;;;;;;;;;;;;16.10;56.05;100657.13;5076354;28;1976;-55
2022/08/30 02:34:41;;;;;;;;;;;;;;;16.06;56.20;100654.91;5077213;28;1080;-55
2022/08/30 02:37:07;;;;;;;;;;;;;;;16.06;56.19;100671.38;5077446;28;1202;-55
2022/08/30 02:39:33;;;;;;;;;;;;;;;16.05;56.13;100671.66;5077152;28;965;-55
2022/08/30 02:41:58;;;;;;;;;;;;;;;16.02;56.02;100667.53;5070062;28;1135;-55
2022/08/30 02:44:24;;;;;;;;;;;;;;;16.03;55.91;100671.09;5065702;28;1143;-55
2022/08/30 02:46:49;;;;;;;;;;;;;;;16.03;55.89;100669.19;5076760;28;1166;-55
2022/08/30 02:49:14;;;;;;;;;;;;;;;15.97;56.25;100670.25;5064795;28;1100;-55
2022/08/30 02:51:40;;;;;;;;;;;;;;;16.01;56.05;100674.09;5077149;28;1084;-55
2022/08/30 02:54:05;;;;;;;;;;;;;;;15.96;56.06;100668.59;5070392;28;1981;-55
2022/08/30 02:56:31;;;;;;;;;;;;;;;16.55;56.50;100680.16;5075798;28;1209;-56
2022/08/30 02:58:56;;;;;;;;;;;;;;;17.32;56.38;100676.44;5076797;28;1171;-55
2022/08/30 03:01:22;;;;;;;;;;;;;;;16.69;57.35;100674.94;5076690;28;1135;-55
2022/08/30 03:03:47;;;;;;;;;;;;;;;16.48;57.52;100679.63;5076502;28;1001;-55
2022/08/30 03:06:13;;;;;;;;;;;;;;;16.46;56.93;100673.59;5072720;28;1108;-55
2022/08/30 03:08:38;;;;;;;;;;;;;;;16.36;57.05;100683.47;5076591;28;1026;-55
2022/08/30 03:11:04;;;;;;;;;;;;;;;16.26;56.92;100680.72;5076269;28;985;-55
2022/08/30 03:13:30;;;;;;;;;;;;;;;16.24;56.63;100681.00;5076504;28;1917;-55
2022/08/30 03:15:55;;;;;;;;;;;;;;;16.18;56.64;100690.31;5076537;28;985;-52
2022/08/30 03:18:21;;;;;;;;;;;;;;;16.19;56.26;100683.72;5069603;28;1211;-52
2022/08/30 03:20:47;;;;;;;;;;;;;;;16.14;56.23;100697.44;5076061;28;1001;-50
2022/08/30 03:23:13;;;;;;;;;;;;;;;16.13;56.10;100684.00;5075893;28;973;-52
2022/08/30 03:25:38;;;;;;;;;;;;;;;16.08;56.25;100682.88;5072965;28;1408;-47
2022/08/30 03:28:04;;;;;;;;;;;;;;;16.10;56.12;100682.63;5069070;28;1072;-49
2022/08/30 03:30:29;;;;;;;;;;;;;;;16.07;56.05;100678.53;5068652;28;1227;-55
2022/08/30 03:32:55;;;;;;;;;;;;;;;16.50;56.59;100700.19;5069092;28;1910;-56
2022/08/30 03:35:20;;;;;;;;;;;;;;;17.03;56.95;100702.63;5075819;28;1123;-52
2022/08/30 03:37:46;;;;;;;;;;;;;;;16.60;57.48;100694.69;5076324;28;1033;-52
2022/08/30 03:40:12;;;;;;;;;;;;;;;16.46;57.19;100690.88;5076546;28;1013;-49
2022/08/30 03:42:37;;;;;;;;;;;;;;;16.32;57.11;100703.50;5075861;28;1097;-49
2022/08/30 03:45:03;;;;;;;;;;;;;;;16.36;56.79;100702.66;5065030;28;998;-52
2022/08/30 03:47:28;;;;;;;;;;;;;;;16.22;56.58;100704.31;5076070;28;1001;-48
2022/08/30 03:49:54;;;;;;;;;;;;;;;16.23;56.53;100705.97;5076102;28;1076;-52
2022/08/30 03:52:19;;;;;;;;;;;;;;;16.21;56.41;100724.59;5075746;28;1976;-53
2022/08/30 03:54:45;;;;;;;;;;;;;;;16.17;56.19;100721.59;5069911;28;1143;-54
2022/08/30 03:57:10;;;;;;;;;;;;;;;16.13;56.52;100722.41;5071451;28;1441;-50
2022/08/30 03:59:35;;;;;;;;;;;;;;;16.11;56.27;100730.09;5071103;28;1056;-53
2022/08/30 04:02:01;;;;;;;;;;;;;;;16.12;56.10;100731.72;5058746;28;1097;-53
2022/08/30 04:04:26;;;;;;;;;;;;;;;16.08;56.00;100729.53;5061147;28;1243;-52
2022/08/30 04:06:52;;;;;;;;;;;;;;;16.06;55.92;100728.13;5059833;28;1188;-54
2022/08/30 04:09:17;;;;;;;;;;;;;;;16.01;56.09;100728.16;5057194;28;1310;-54
2022/08/30 04:11:43;;;;;;;;;;;;;;;15.99;56.34;100733.91;5059143;28;1297;-54
2022/08/30 04:14:08;;;;;;;;;;;;;;;16.02;56.01;100727.88;5058942;28;1974;-52
2022/08/30 04:16:34;;;;;;;;;;;;;;;15.99;56.18;100739.38;5059526;28;1322;-52
2022/08/30 04:18:59;;;;;;;;;;;;;;;16.35;56.65;100731.19;5063559;28;1282;-51
2022/08/30 04:21:25;;;;;;;;;;;;;;;17.42;56.38;100726.72;5057512;28;1262;-52
2022/08/30 04:23:50;;;;;;;;;;;;;;;16.72;57.53;100730.13;5057608;28;1152;-53
2022/08/30 04:26:16;;;;;;;;;;;;;;;16.55;57.48;100735.91;5059803;28;1151;-55
2022/08/30 04:28:41;;;;;;;;;;;;;;;16.45;57.41;100738.63;5058977;28;1178;-53
2022/08/30 04:31:08;;;;;;;;;;;;;;;16.33;57.22;100749.88;5057147;28;1262;-52
2022/08/30 04:33:34;;;;;;;;;;;;;;;16.34;57.24;100746.03;5067059;28;2528;-54
2022/08/30 04:36:03;;;;;;;;;;;;;;;16.31;56.75;100753.97;5062814;28;2103;-54
2022/08/30 04:38:29;;;;;;;;;;;;;;;16.24;56.65;100743.25;5064552;28;2023;-52
2022/08/30 04:40:54;;;;;;;;;;;;;;;16.18;56.51;100741.63;5062584;28;1864;-52
2022/08/30 04:43:20;;;;;;;;;;;;;;;16.21;56.58;100752.84;5063242;28;1932;-49
2022/08/30 04:45:45;;;;;;;;;;;;;;;16.17;56.26;100745.44;5057395;28;1846;-50
2022/08/30 04:48:10;;;;;;;;;;;;;;;16.12;56.56;100742.69;5049687;28;1936;-46
2022/08/30 04:50:36;;;;;;;;;;;;;;;16.08;56.65;100745.97;5065865;28;1148;-48
2022/08/30 04:53:10;;;;;;;;;;;;;;;16.11;56.22;100746.53;5057307;28;1898;-51
2022/08/30 04:55:36;;;;;;;;;;;;;;;16.06;56.36;100753.66;5070129;28;1289;-53
2022/08/30 04:58:01;;;;;;;;;;;;;;;16.07;56.49;100752.59;5057760;28;1080;-48
2022/08/30 05:00:27;;;;;;;;;;;;;;;16.06;56.46;100756.41;5059267;28;1203;-51
2022/08/30 05:02:52;;;;;;;;;;;;;;;16.04;56.49;100755.84;5056815;28;1196;-49
2022/08/30 05:08:02;;;;;;;;;;;;;;;17.30;56.46;100753.69;5060303;28;1077;-53
2022/08/30 05:10:28;;;;;;;;;;;;;;;16.83;57.46;100760.31;5061440;28;1302;-51
2022/08/30 05:12:53;;;;;;;;;;;;;;;16.62;57.58;100760.34;5057785;28;1902;-51
2022/08/30 05:15:19;;;;;;;;;;;;;;;16.46;57.62;100769.66;5057046;28;1123;-56
2022/08/30 05:17:44;;;;;;;;;;;;;;;16.39;57.53;100765.22;5057090;28;2391;-55
2022/08/30 05:20:10;;;;;;;;;;;;;;;16.35;57.14;100769.63;5058759;28;1195;-54
2022/08/30 05:22:36;;;;;;;;;;;;;;;16.30;57.06;100764.16;5056193;28;1030;-53
2022/08/30 05:25:02;;;;;;;;;;;;;;;16.29;56.89;100767.97;5058507;28;1187;-52
2022/08/30 05:27:27;;;;;;;;;;;;;;;16.24;56.95;100765.22;5058337;28;1297;-55
2022/08/30 05:29:54;;;;;;;;;;;;;;;16.29;56.67;100770.72;5060279;28;1275;-54
2022/08/30 05:32:19;;;;;;;;;;;;;;;16.23;56.52;100774.56;5057699;28;1984;-54
2022/08/30 05:34:45;;;;;;;;;;;;;;;16.20;56.78;100783.31;5056400;28;1187;-53
2022/08/30 05:37:10;;;;;;;;;;;;;;;16.18;56.40;100774.53;5059219;28;1208;-54
2022/08/30 05:39:36;;;;;;;;;;;;;;;16.16;56.34;100771.22;5058808;28;1192;-53
2022/08/30 05:42:01;;;;;;;;;;;;;;;16.17;56.41;100781.13;5059452;28;1259;-54
2022/08/30 05:44:26;;;;;;;;;;;;;;;17.24;55.18;100772.09;5064585;28;1036;-55
2022/08/30 05:46:52;;;;;;;;;;;;;;;16.86;54.88;100771.59;5061228;28;1238;-50
2022/08/30 05:49:17;;;;;;;;;;;;;;;16.51;53.79;100783.34;5062193;28;2378;-52
2022/08/30 05:51:43;;;;;;;;;;;;;;;16.36;52.68;100782.25;5063731;28;1246;-47
2022/08/30 05:54:08;;;;;;;;;;;;;;;17.72;54.20;100768.91;5060465;28;1914;-51
2022/08/30 05:56:35;;;;;;;;;;;;;;;17.00;53.89;100779.28;5061675;28;1245;-52
2022/08/30 05:59:00;;;;;;;;;;;;;;;16.72;52.61;100778.72;5061252;28;1223;-54
2022/08/30 06:01:26;;;;;;;;;;;;;;;16.60;51.74;100770.75;5059827;28;1117;-50
2022/08/30 06:03:52;;;;;;;;;;;;;;;16.54;51.43;100777.34;5065553;28;1081;-57
2022/08/30 06:06:18;;;;;;;;;;;;;;;16.55;50.59;100765.25;5063440;28;962;-53
2022/08/30 06:08:47;;;;;;;;;;;;;;;17.50;52.71;100760.22;5065995;28;876;-55
2022/08/30 06:11:13;;;;;;;;;;;;;;;17.15;58.21;100767.44;5061781;28;1064;-50
2022/08/30 06:13:39;;;;;;;;;;;;;;;17.92;56.55;100762.56;5069463;28;1910;-56
2022/08/30 06:16:04;;;;;;;;;;;;;;;17.33;55.25;100763.28;5074466;28;1041;-56
2022/08/30 06:18:30;;;;;;;;;;;;;;;17.29;52.90;100765.75;5060036;28;1826;-49
2022/08/30 06:20:55;;;;;;;;;;;;;;;17.04;52.05;100770.22;5062606;28;988;-52
2022/08/30 06:23:21;;;;;;;;;;;;;;;16.97;51.35;100769.69;5062335;28;1222;-52
2022/08/30 06:25:47;;;;;;;;;;;;;;;17.04;50.66;100775.72;5063676;28;1107;-51
2022/08/30 06:28:12;;;;;;;;;;;;;;;16.92;50.24;100766.94;5062621;28;925;-53
2022/08/30 06:30:38;;;;;;;;;;;;;;;16.89;49.73;100767.50;5063741;28;948;-54
2022/08/30 06:33:04;;;;;;;;;;;;;;;16.88;49.87;100772.16;5063555;28;1902;-53
2022/08/30 06:35:30;;;;;;;;;;;;;;;17.18;50.84;100772.38;5060825;28;1033;-54
2022/08/30 06:37:56;;;;;;;;;;;;;;;17.48;51.75;100774.25;5065551;28;1174;-55
2022/08/30 06:40:21;;;;;;;;;;;;;;;17.18;51.27;100780.63;5060786;28;941;-55
2022/08/30 06:42:47;;;;;;;;;;;;;;;17.06;50.59;100772.69;5064525;28;1004;-53
2022/08/30 06:45:14;;;;;;;;;;;;;;;17.10;49.80;100771.03;5048901;28;933;-53
2022/08/30 06:47:39;;;;;;;;;;;;;;;17.03;49.53;100773.25;5067582;28;2325;-53
2022/08/30 06:50:05;;;;;;;;;;;;;;;17.09;49.07;100767.44;5066013;28;848;-51
2022/08/30 06:52:31;;;;;;;;;;;;;;;17.01;49.01;100773.53;5063464;28;1979;-53
2022/08/30 06:54:57;;;;;;;;;;;;;;;17.08;48.73;100768.56;5064090;28;1028;-56
2022/08/30 06:57:23;;;;;;;;;;;;;;;16.98;48.47;100765.81;5063726;28;1163;-56
2022/08/30 06:59:48;;;;;;;;;;;;;;;17.03;48.15;100760.34;5059017;28;1143;-54
2022/08/30 07:02:14;;;;;;;;;;;;;;;16.95;48.37;100766.38;5065246;28;994;-56
2022/08/30 07:04:41;;;;;;;;;;;;;;;17.56;50.27;100764.59;5069020;28;963;-55
2022/08/30 07:07:08;;;;;;;;;;;;;;;17.38;49.56;100771.53;5069815;28;988;-54
2022/08/30 07:09:34;;;;;;;;;;;;;;;17.25;49.53;100765.50;5057207;28;1000;-56
2022/08/30 07:12:00;;;;;;;;;;;;;;;17.20;49.04;100767.44;5069612;28;934;-56
2022/08/30 07:14:26;;;;;;;;;;;;;;;17.15;48.81;100770.19;5076298;28;1914;-54
2022/08/30 07:16:51;;;;;;;;;;;;;;;17.09;48.68;100767.44;5067246;28;1220;-54
2022/08/30 07:19:17;;;;;;;;;;;;;;;17.19;48.27;100772.09;5059315;28;2554;-52
2022/08/30 07:21:42;;;;;;;;;;;;;;;17.15;48.00;100765.50;5062489;28;1213;-53
2022/08/30 07:24:09;;;;;;;;;;;;;;;17.05;47.87;100766.34;5065151;28;891;-54
2022/08/30 07:26:42;;;;;;;;;;;;;;;17.04;48.07;100767.47;5065165;28;871;-49
2022/08/30 07:29:07;;;;;;;;;;;;;;;17.12;47.81;100770.75;5066828;28;997;-55
2022/08/30 07:31:34;;;;;;;;;;;;;;;17.08;47.77;100762.22;5063381;28;886;-50
2022/08/30 07:34:00;;;;;;;;;;;;;;;17.05;47.96;100766.34;5060930;28;1981;-53
2022/08/30 07:36:26;;;;;;;;;;;;;;;17.18;47.52;100762.25;5060271;28;1363;-54
2022/08/30 07:38:51;;;;;;;;;;;;;;;17.05;47.58;100776.53;5058858;28;965;-56
2022/08/30 07:41:18;;;;;;;;;;;;;;;17.14;47.27;100774.03;5058716;28;1000;-56
2022/08/30 07:43:43;;;;;;;;;;;;;;;17.14;47.50;100763.06;5060544;28;1062;-51
2022/08/30 07:46:09;;;;;;;;;;;;;;;17.16;47.33;100760.88;5061763;28;925;-55
2022/08/30 07:48:34;;;;;;;;;;;;;;;17.16;47.57;100758.13;5064093;28;1923;-53
2022/08/30 07:51:00;;;;;;;;;;;;;;;17.13;47.63;100753.19;5062135;28;969;-54
2022/08/30 07:53:25;;;;;;;;;;;;;;;17.07;47.38;100755.13;5061446;28;1961;-55
2022/08/30 07:55:51;;;;;;;;;;;;;;;17.08;47.39;100756.75;5063095;28;1158;-55
2022/08/30 07:58:17;;;;;;;;;;;;;;;17.13;47.48;100751.25;5064301;28;983;-52
2022/08/30 08:00:42;;;;;;;;;;;;;;;17.15;47.25;100750.97;5061636;28;922;-53
2022/08/30 08:03:08;;;;;;;;;;;;;;;17.17;47.52;100757.03;5060699;28;1270;-51
2022/08/30 08:05:39;;;;;;;;;;;;;;;17.13;47.61;100754.00;5056419;28;1163;-51
2022/08/30 08:08:05;;;;;;;;;;;;;;;17.18;47.44;100747.66;5070444;28;966;-51
2022/08/30 08:10:31;;;;;;;;;;;;;;;17.14;47.39;100752.91;5063106;28;1471;-54
2022/08/30 08:12:56;;;;;;;;;;;;;;;17.16;47.50;100744.38;5058161;28;1897;-55
2022/08/30 08:15:22;;;;;;;;;;;;;;;17.22;47.20;100748.75;5059063;28;1239;-51
2022/08/30 08:17:47;;;;;;;;;;;;;;;17.13;47.75;100744.94;5061846;28;1805;-53
2022/08/30 08:20:12;;;;;;;;;;;;;;;17.16;47.45;100739.69;5055763;28;1238;-51
2022/08/30 08:22:38;;;;;;;;;;;;;;;17.19;47.56;100741.06;5057299;28;1200;-56
2022/08/30 08:25:04;;;;;;;;;;;;;;;17.14;47.74;100738.31;5059644;28;1191;-53
2022/08/30 08:27:29;;;;;;;;;;;;;;;17.20;47.46;100734.47;5059116;28;1194;-53
2022/08/30 08:29:55;;;;;;;;;;;;;;;17.15;47.44;100743.53;5058466;28;1258;-56
2022/08/30 08:32:20;;;;;;;;;;;;;;;17.26;47.24;100739.69;5058259;28;1159;-51
2022/08/30 08:34:46;;;;;;;;;;;;;;;17.34;47.11;100738.28;5057106;28;1977;-53
2022/08/30 08:37:11;;;;;;;;;;;;;;;17.27;47.36;100729.50;5070029;28;1175;-52
2022/08/30 08:39:38;;;;;;;;;;;;;;;17.33;47.31;100739.38;5067006;28;1044;-51
2022/08/30 08:42:19;;;;;;;;;;;;;;;17.20;47.56;100724.28;5059892;28;1087;-50
2022/08/30 08:44:50;;;;;;;;;;;;;;;17.18;47.82;100718.28;5050069;28;1211;-54
2022/08/30 08:47:17;;;;;;;;;;;;;;;17.27;47.69;100722.06;5057946;28;2245;-54
2022/08/30 08:49:44;;;;;;;;;;;;;;;17.29;47.48;100724.53;5040138;28;1089;-51
2022/08/30 08:55:00;;;;;;;;;;;;;;;17.30;47.52;100728.13;5046950;28;1192;-51
2022/08/30 08:57:28;;;;;;;;;;;;;;;17.34;47.42;100724.53;5042018;28;1311;-51
2022/08/30 08:59:53;;;;;;;;;;;;;;;17.31;47.27;100725.09;5042581;28;1283;-48
2022/08/30 09:02:26;;;;;;;;;;;;;;;17.36;47.39;100722.34;5064705;28;1123;-48
2022/08/30 09:04:56;;;;;;;;;;;;;;;17.33;47.38;100727.56;5056561;28;1192;-52
2022/08/30 09:07:23;;;;;;;;;;;;;;;17.35;47.45;100722.59;5059791;28;1258;-55
2022/08/30 09:09:48;;;;;;;;;;;;;;;17.30;47.44;100717.94;5066520;28;898;-56
2022/08/30 09:12:14;;;;;;;;;;;;;;;17.33;47.52;100728.38;5051115;28;1009;-53
2022/08/30 09:14:41;;;;;;;;;;;;;;;17.32;47.61;100725.91;5067368;28;1901;-57
2022/08/30 09:17:07;;;;;;;;;;;;;;;17.42;47.30;100725.91;5056036;28;1255;-54
2022/08/30 09:19:39;;;;;;;;;;;;;;;17.32;47.77;100720.41;5065592;28;2133;-56
2022/08/30 09:22:11;;;;;;;;;;;;;;;17.40;47.34;100717.09;5067806;28;874;-55
2022/08/30 09:24:41;;;;;;;;;;;;;;;17.39;47.43;100719.03;5046439;28;1092;-55
2022/08/30 09:27:35;;;;;;;;;;;;;;;17.35;47.69;100711.59;5066842;28;1071;-56
2022/08/30 09:30:06;;;;;;;;;;;;;;;17.36;47.45;100710.50;5050187;28;1256;-55
2022/08/30 09:32:35;;;;;;;;;;;;;;;17.41;47.61;100708.56;5070163;28;1906;-54
2022/08/30 09:35:02;;;;;;;;;;;;;;;17.41;47.64;100714.06;5047946;28;1021;-54
2022/08/30 09:37:29;;;;;;;;;;;;;;;17.42;47.44;100704.72;5062069;28;1096;-55
2022/08/30 09:39:55;;;;;;;;;;;;;;;17.44;47.53;100708.00;5040504;28;1218;-53
2022/08/30 09:42:21;;;;;;;;;;;;;;;17.48;47.15;100701.97;5070300;28;1119;-54
2022/08/30 09:44:46;;;;;;;;;;;;;;;17.47;47.48;100700.31;5077278;28;1203;-55
2022/08/30 09:47:19;;;;;;;;;;;;;;;17.45;47.45;100714.34;5065464;28;1816;-55
2022/08/30 09:49:44;;;;;;;;;;;;;;;17.48;47.52;100707.44;5061372;28;1214;-56
2022/08/30 09:52:10;;;;;;;;;;;;;;;17.49;47.58;100709.06;5061548;28;1231;-54
2022/08/30 09:54:51;;;;;;;;;;;;;;;17.48;47.50;100701.97;5060670;28;1917;-54
2022/08/30 09:57:20;;;;;;;;;;;;;;;17.48;47.63;100702.78;5058467;28;1258;-50
2022/08/30 09:59:52;;;;;;;;;;;;;;;17.43;47.74;100700.88;5044839;28;1247;-56
2022/08/30 10:02:37;;;;;;;;;;;;;;;17.49;47.47;100698.91;5043112;28;1263;-53
2022/08/30 10:05:05;;;;;;;;;;;;;;;17.48;47.45;100701.97;5061472;28;1243;-56
2022/08/30 10:07:37;;;;;;;;;;;;;;;17.53;47.49;100704.66;5061385;28;1163;-56
2022/08/30 10:10:16;;;;;;;;;;;;;;;17.52;47.56;100698.34;5061931;28;1099;-52
2022/08/30 10:12:42;;;;;;;;;;;;;;;17.53;47.37;100699.16;5047950;28;1972;-55
2022/08/30 10:15:07;;;;;;;;;;;;;;;17.48;47.51;100701.97;5070968;28;1005;-54
2022/08/30 10:17:37;;;;;;;;;;;;;;;17.66;47.20;100692.25;5067308;28;2299;-55
2022/08/30 10:20:06;;;;;;;;;;;;;;;17.56;47.32;100693.13;5065686;28;1060;-54
2022/08/30 10:22:49;;;;;;;;;;;;;;;17.51;47.58;100690.41;5062897;28;1171;-52
2022/08/30 10:25:25;;;;;;;;;;;;;;;17.54;47.64;100701.63;5069734;28;1393;-51
2022/08/30 10:27:52;;;;;;;;;;;;;;;17.64;47.20;100686.19;5041330;28;1124;-54
2022/08/30 10:30:17;;;;;;;;;;;;;;;17.53;47.43;100685.41;5069140;28;1238;-53
2022/08/30 10:32:56;;;;;;;;;;;;;;;17.61;47.53;100687.59;5072588;28;1985;-53
2022/08/30 10:35:23;;;;;;;;;;;;;;;17.55;47.59;100685.97;5040448;28;985;-50
2022/08/30 10:37:51;;;;;;;;;;;;;;;17.63;47.44;100688.13;5052014;28;1195;-49
2022/08/30 10:43:08;;;;;;;;;;;;;;;16.23;51.00;100689.50;5058991;28;962;-55
2022/08/30 10:45:34;;;;;;;;;;;;;;;16.92;48.58;100692.78;5054989;28;1020;-54
2022/08/30 10:48:10;;;;;;;;;;;;;;;17.10;48.08;100680.38;5046656;28;1691;-57
2022/08/30 10:50:43;;;;;;;;;;;;;;;17.18;48.12;100687.22;5044771;28;1239;-55
2022/08/30 10:53:09;;;;;;;;;;;;;;;17.21;47.79;100692.16;5057957;28;1985;-52
2022/08/30 10:55:36;;;;;;;;;;;;;;;17.19;47.78;100692.41;5041835;28;1239;-54
2022/08/30 10:58:02;;;;;;;;;;;;;;;17.33;47.55;100686.34;5060990;28;1305;-51
2022/08/30 11:00:29;;;;;;;;;;;;;;;17.38;47.63;100687.13;5060192;28;1255;-53
2022/08/30 11:03:06;;;;;;;;;;;;;;;17.34;47.55;100680.56;5041856;28;1310;-53
2022/08/30 11:05:38;;;;;;;;;;;;;;;17.35;47.68;100676.72;5059843;28;1183;-50
2022/08/30 11:08:08;;;;;;;;;;;;;;;17.33;47.54;100678.91;5058967;28;1076;-56
2022/08/30 11:10:34;;;;;;;;;;;;;;;17.36;47.39;100675.63;5063125;28;1175;-47
2022/08/30 11:13:09;;;;;;;;;;;;;;;17.45;47.53;100665.66;5061781;28;1902;-56
2022/08/30 11:15:36;;;;;;;;;;;;;;;17.42;47.50;100658.00;5039979;28;1077;-56
2022/08/30 11:18:04;;;;;;;;;;;;;;;17.50;47.33;100661.25;5059531;28;2018;-51
2022/08/30 11:20:31;;;;;;;;;;;;;;;17.52;47.28;100664.56;5062293;28;1064;-53
2022/08/30 11:23:15;;;;;;;;;;;;;;;17.39;47.65;100649.47;5041117;28;1147;-52
2022/08/30 11:25:49;;;;;;;;;;;;;;;17.42;47.68;100651.69;5058368;28;1226;-53
2022/08/30 11:28:35;;;;;;;;;;;;;;;17.52;47.43;100648.06;5058966;28;1278;-55
2022/08/30 11:31:06;;;;;;;;;;;;;;;17.53;47.48;100638.69;5051336;28;1152;-53
2022/08/30 11:33:52;;;;;;;;;;;;;;;17.54;47.40;100637.59;5059378;28;1906;-55
2022/08/30 11:36:38;;;;;;;;;;;;;;;17.53;47.55;100634.03;5057948;28;1176;-54
2022/08/30 11:39:06;;;;;;;;;;;;;;;17.53;47.39;100633.19;5044493;28;1891;-52
2022/08/30 11:41:37;;;;;;;;;;;;;;;17.47;47.71;100628.84;5060723;28;1243;-52
2022/08/30 11:44:13;;;;;;;;;;;;;;;17.63;47.20;100627.66;5063644;28;1199;-54
2022/08/30 11:46:39;;;;;;;;;;;;;;;17.66;47.24;100626.25;5060866;28;1032;-52
2022/08/30 11:49:21;;;;;;;;;;;;;;;17.61;47.51;100624.34;5067280;28;2540;-53
2022/08/30 11:51:49;;;;;;;;;;;;;;;17.57;47.48;100621.34;5071294;28;1129;-52
2022/08/30 11:54:15;;;;;;;;;;;;;;;17.54;47.53;100615.59;5063284;28;1909;-52
2022/08/30 11:56:48;;;;;;;;;;;;;;;14.44;55.94;100627.34;5068584;28;1719;-50
2022/08/30 11:59:32;;;;;;;;;;;;;;;16.71;49.15;100618.63;5049420;28;889;-52
2022/08/30 12:02:00;;;;;;;;;;;;;;;17.05;48.33;100611.72;5067819;28;993;-53
2022/08/30 12:04:44;;;;;;;;;;;;;;;17.16;47.73;100615.25;5066206;28;977;-54
2022/08/30 12:07:10;;;;;;;;;;;;;;;17.23;47.69;100605.56;5068805;28;1111;-54
2022/08/30 12:09:36;;;;;;;;;;;;;;;17.23;47.55;100610.25;5073707;28;1315;-51
2022/08/30 12:12:04;;;;;;;;;;;;;;;17.27;47.49;100609.41;5062462;28;1093;-53
2022/08/30 12:14:35;;;;;;;;;;;;;;;17.34;47.60;100614.59;5060746;28;1992;-55
2022/08/30 12:19:46;;;;;;;;;;;;;;;17.41;47.40;100614.28;5057656;28;1100;-53
2022/08/30 12:22:14;;;;;;;;;;;;;;;17.40;47.44;100618.97;5056269;28;1002;-54
2022/08/30 12:24:42;;;;;;;;;;;;;;;17.39;47.70;100614.56;5064746;28;1239;-51
2022/08/30 12:27:27;;;;;;;;;;;;;;;17.44;47.58;100614.53;5070945;28;1068;-52
2022/08/30 12:29:58;;;;;;;;;;;;;;;17.52;47.19;100617.81;5058686;28;969;-50
2022/08/30 12:32:23;;;;;;;;;;;;;;;17.54;47.27;100615.59;5072143;28;981;-51
2022/08/30 12:34:50;;;;;;;;;;;;;;;17.50;47.35;100617.25;5066110;28;1887;-49
2022/08/30 12:37:19;;;;;;;;;;;;;;;17.44;47.40;100609.03;5044111;28;1394;-54
2022/08/30 12:39:44;;;;;;;;;;;;;;;17.43;47.29;100610.16;5071656;28;1176;-54
2022/08/30 12:42:12;;;;;;;;;;;;;;;17.48;47.47;100614.00;5050919;28;1048;-53
2022/08/30 12:44:38;;;;;;;;;;;;;;;17.54;47.33;100615.59;5073756;28;1064;-54
2022/08/30 12:47:03;;;;;;;;;;;;;;;17.45;47.49;100604.38;5065484;28;890;-52
2022/08/30 12:49:30;;;;;;;;;;;;;;;17.48;47.46;100609.31;5062628;28;2653;-52
2022/08/30 12:51:56;;;;;;;;;;;;;;;17.49;47.28;100599.97;5051014;28;1052;-54
2022/08/30 12:54:27;;;;;;;;;;;;;;;17.49;47.29;100599.13;5065017;28;2028;-54
2022/08/30 12:56:52;;;;;;;;;;;;;;;15.02;54.12;100611.84;5042566;28;1473;-51
2022/08/30 12:59:36;;;;;;;;;;;;;;;16.76;48.91;100602.16;5072269;28;974;-53